sensor_id;sensor_type;location;lat;lon;timestamp;temperature;humidity
72940;DHT22;61094;51.154;13.570;2023-01-28T00:00:40;1.00;99.90
72940;DHT22;61094;51.154;13.570;2023-01-28T00:02:42;1.00;99.90
72940;DHT22;61094;51.154;13.570;2023-01-28T00:04:43;1.00;99.90
72940;DHT22;61094;51.154;13.570;2023-01-28T00:06:45;1.10;99.90
72940;DHT22;61094;51.154;13.570;2023-01-28T00:08:47;1.10;99.90
72940;DHT22;61094;51.154;13.570;2023-01-28T00:10:49;1.10;99.90
72940;DHT22;61094;51.154;13.570;2023-01-28T00:12:51;1.10;99.90
72940;DHT22;61094;51.154;13.570;2023-01-28T00:14:52;1.10;99.90
72940;DHT22;61094;51.154;13.570;2023-01-28T00:16:55;1.10;99.90
72940;DHT22;61094;51.154;13.570;2023-01-28T00:18:57;1.10;99.90
72940;DHT22;61094;51.154;13.570;2023-01-28T00:21:00;1.10;99.90
72940;DHT22;61094;51.154;13.570;2023-01-28T00:23:01;1.10;99.90
72940;DHT22;61094;51.154;13.570;2023-01-28T00:25:03;1.10;99.90
72940;DHT22;61094;51.154;13.570;2023-01-28T00:27:05;1.10;99.90
72940;DHT22;61094;51.154;13.570;2023-01-28T00:29:07;1.10;99.90
72940;DHT22;61094;51.154;13.570;2023-01-28T00:31:14;1.10;99.90
72940;DHT22;61094;51.154;13.570;2023-01-28T00:33:18;1.10;99.90
72940;DHT22;61094;51.154;13.570;2023-01-28T00:35:20;1.00;99.90
72940;DHT22;61094;51.154;13.570;2023-01-28T00:37:22;1.10;99.90
72940;DHT22;61094;51.154;13.570;2023-01-28T00:39:24;1.10;99.90
72940;DHT22;61094;51.154;13.570;2023-01-28T00:41:27;1.10;99.90
72940;DHT22;61094;51.154;13.570;2023-01-28T00:43:31;1.10;99.90
72940;DHT22;61094;51.154;13.570;2023-01-28T00:45:33;1.10;99.90
72940;DHT22;61094;51.154;13.570;2023-01-28T00:47:35;1.10;99.90
72940;DHT22;61094;51.154;13.570;2023-01-28T00:49:38;1.10;99.90
72940;DHT22;61094;51.154;13.570;2023-01-28T00:51:40;1.10;99.90
72940;DHT22;61094;51.154;13.570;2023-01-28T00:53:42;1.10;99.90
72940;DHT22;61094;51.154;13.570;2023-01-28T00:55:45;1.10;99.90
72940;DHT22;61094;51.154;13.570;2023-01-28T00:57:47;1.10;99.90
72940;DHT22;61094;51.154;13.570;2023-01-28T00:59:49;1.10;99.90
72940;DHT22;61094;51.154;13.570;2023-01-28T01:01:50;1.10;99.90
72940;DHT22;61094;51.154;13.570;2023-01-28T01:03:53;1.10;99.90
72940;DHT22;61094;51.154;13.570;2023-01-28T01:06:05;1.10;99.90
72940;DHT22;61094;51.154;13.570;2023-01-28T01:08:06;1.10;99.90
72940;DHT22;61094;51.154;13.570;2023-01-28T01:10:10;1.10;99.90
72940;DHT22;61094;51.154;13.570;2023-01-28T01:12:12;1.10;99.90
72940;DHT22;61094;51.154;13.570;2023-01-28T01:14:14;1.10;99.90
72940;DHT22;61094;51.154;13.570;2023-01-28T01:16:16;1.10;99.90
72940;DHT22;61094;51.154;13.570;2023-01-28T01:18:17;1.10;99.90
72940;DHT22;61094;51.154;13.570;2023-01-28T01:20:22;1.10;99.90
72940;DHT22;61094;51.154;13.570;2023-01-28T01:22:26;1.20;99.90
72940;DHT22;61094;51.154;13.570;2023-01-28T01:24:27;1.10;99.90
72940;DHT22;61094;51.154;13.570;2023-01-28T01:26:33;1.10;99.90
72940;DHT22;61094;51.154;13.570;2023-01-28T01:28:35;1.10;99.90
72940;DHT22;61094;51.154;13.570;2023-01-28T01:30:37;1.20;99.90
72940;DHT22;61094;51.154;13.570;2023-01-28T01:32:38;1.20;99.90
72940;DHT22;61094;51.154;13.570;2023-01-28T01:34:40;1.10;99.90
72940;DHT22;61094;51.154;13.570;2023-01-28T01:36:41;1.10;99.90
72940;DHT22;61094;51.154;13.570;2023-01-28T01:38:45;1.10;99.90
72940;DHT22;61094;51.154;13.570;2023-01-28T01:40:47;1.10;99.90
72940;DHT22;61094;51.154;13.570;2023-01-28T01:42:48;1.20;99.90
72940;DHT22;61094;51.154;13.570;2023-01-28T01:44:56;1.10;99.90
72940;DHT22;61094;51.154;13.570;2023-01-28T01:46:58;1.10;99.90
72940;DHT22;61094;51.154;13.570;2023-01-28T01:49:05;1.20;99.90
72940;DHT22;61094;51.154;13.570;2023-01-28T01:51:10;1.20;99.90
72940;DHT22;61094;51.154;13.570;2023-01-28T01:53:15;1.10;99.90
72940;DHT22;61094;51.154;13.570;2023-01-28T01:55:20;1.10;99.90
72940;DHT22;61094;51.154;13.570;2023-01-28T01:57:27;1.10;99.90
72940;DHT22;61094;51.154;13.570;2023-01-28T01:59:31;1.10;99.90
72940;DHT22;61094;51.154;13.570;2023-01-28T02:01:35;1.10;99.90
72940;DHT22;61094;51.154;13.570;2023-01-28T02:03:42;1.10;99.90
72940;DHT22;61094;51.154;13.570;2023-01-28T02:05:49;1.10;99.90
72940;DHT22;61094;51.154;13.570;2023-01-28T02:07:53;1.10;99.90
72940;DHT22;61094;51.154;13.570;2023-01-28T02:10:20;1.10;99.90
72940;DHT22;61094;51.154;13.570;2023-01-28T02:12:26;1.10;99.90
72940;DHT22;61094;51.154;13.570;2023-01-28T02:14:32;1.10;99.90
72940;DHT22;61094;51.154;13.570;2023-01-28T02:16:34;1.10;99.90
72940;DHT22;61094;51.154;13.570;2023-01-28T02:18:36;1.10;99.90
72940;DHT22;61094;51.154;13.570;2023-01-28T02:20:54;1.10;99.90
72940;DHT22;61094;51.154;13.570;2023-01-28T02:23:16;1.10;99.90
72940;DHT22;61094;51.154;13.570;2023-01-28T02:25:52;1.00;99.90
72940;DHT22;61094;51.154;13.570;2023-01-28T02:28:09;1.00;99.90
72940;DHT22;61094;51.154;13.570;2023-01-28T02:30:18;1.00;99.90
72940;DHT22;61094;51.154;13.570;2023-01-28T02:32:26;1.00;99.90
72940;DHT22;61094;51.154;13.570;2023-01-28T02:34:35;1.00;99.90
72940;DHT22;61094;51.154;13.570;2023-01-28T02:36:42;1.00;99.90
72940;DHT22;61094;51.154;13.570;2023-01-28T02:38:48;0.90;99.90
72940;DHT22;61094;51.154;13.570;2023-01-28T02:40:57;1.00;99.90
72940;DHT22;61094;51.154;13.570;2023-01-28T02:43:06;1.00;99.90
72940;DHT22;61094;51.154;13.570;2023-01-28T02:45:17;0.90;99.90
72940;DHT22;61094;51.154;13.570;2023-01-28T02:47:20;0.90;99.90
72940;DHT22;61094;51.154;13.570;2023-01-28T02:49:42;0.90;99.90
72940;DHT22;61094;51.154;13.570;2023-01-28T02:51:55;0.90;99.90
72940;DHT22;61094;51.154;13.570;2023-01-28T02:54:06;1.00;99.90
72940;DHT22;61094;51.154;13.570;2023-01-28T02:56:18;0.90;99.90
72940;DHT22;61094;51.154;13.570;2023-01-28T02:58:34;0.90;99.90
72940;DHT22;61094;51.154;13.570;2023-01-28T03:00:43;0.90;99.90
72940;DHT22;61094;51.154;13.570;2023-01-28T03:02:50;0.90;99.90
72940;DHT22;61094;51.154;13.570;2023-01-28T03:04:57;0.90;99.90
72940;DHT22;61094;51.154;13.570;2023-01-28T03:07:04;0.80;99.90
72940;DHT22;61094;51.154;13.570;2023-01-28T03:09:10;0.80;99.90
72940;DHT22;61094;51.154;13.570;2023-01-28T03:11:28;0.80;99.90
72940;DHT22;61094;51.154;13.570;2023-01-28T03:13:49;0.80;99.90
72940;DHT22;61094;51.154;13.570;2023-01-28T03:16:08;0.80;99.90
72940;DHT22;61094;51.154;13.570;2023-01-28T03:18:30;0.70;99.90
72940;DHT22;61094;51.154;13.570;2023-01-28T03:20:56;0.70;99.90
72940;DHT22;61094;51.154;13.570;2023-01-28T03:23:21;0.60;99.90
72940;DHT22;61094;51.154;13.570;2023-01-28T03:25:44;0.60;99.90
72940;DHT22;61094;51.154;13.570;2023-01-28T03:28:07;0.60;99.90
72940;DHT22;61094;51.154;13.570;2023-01-28T03:30:37;0.50;99.90
72940;DHT22;61094;51.154;13.570;2023-01-28T03:33:09;0.50;99.90
72940;DHT22;61094;51.154;13.570;2023-01-28T03:35:33;0.50;99.90
72940;DHT22;61094;51.154;13.570;2023-01-28T03:37:54;0.50;99.90
72940;DHT22;61094;51.154;13.570;2023-01-28T03:40:04;0.50;99.90
72940;DHT22;61094;51.154;13.570;2023-01-28T03:42:09;0.40;99.90
72940;DHT22;61094;51.154;13.570;2023-01-28T03:44:20;0.40;99.90
72940;DHT22;61094;51.154;13.570;2023-01-28T03:46:40;0.40;99.90
72940;DHT22;61094;51.154;13.570;2023-01-28T03:48:42;0.30;99.90
72940;DHT22;61094;51.154;13.570;2023-01-28T03:50:46;0.30;99.90
72940;DHT22;61094;51.154;13.570;2023-01-28T03:52:49;0.30;99.90
72940;DHT22;61094;51.154;13.570;2023-01-28T03:55:02;0.20;99.90
72940;DHT22;61094;51.154;13.570;2023-01-28T03:57:13;0.20;99.90
72940;DHT22;61094;51.154;13.570;2023-01-28T03:59:15;0.10;99.90
72940;DHT22;61094;51.154;13.570;2023-01-28T04:01:17;0.10;99.90
72940;DHT22;61094;51.154;13.570;2023-01-28T04:03:20;0.10;99.90
72940;DHT22;61094;51.154;13.570;2023-01-28T04:05:27;0.10;99.90
72940;DHT22;61094;51.154;13.570;2023-01-28T04:07:30;0.00;99.90
72940;DHT22;61094;51.154;13.570;2023-01-28T04:09:56;0.00;99.90
72940;DHT22;61094;51.154;13.570;2023-01-28T04:12:02;0.00;99.90
72940;DHT22;61094;51.154;13.570;2023-01-28T04:14:09;0.00;99.90
72940;DHT22;61094;51.154;13.570;2023-01-28T04:16:31;0.00;99.90
72940;DHT22;61094;51.154;13.570;2023-01-28T04:18:34;-0.10;99.90
72940;DHT22;61094;51.154;13.570;2023-01-28T04:20:37;-0.10;99.90
72940;DHT22;61094;51.154;13.570;2023-01-28T04:22:39;-0.20;99.90
72940;DHT22;61094;51.154;13.570;2023-01-28T04:24:44;-0.20;99.90
72940;DHT22;61094;51.154;13.570;2023-01-28T04:26:45;-0.20;99.90
72940;DHT22;61094;51.154;13.570;2023-01-28T04:28:49;-0.30;99.90
72940;DHT22;61094;51.154;13.570;2023-01-28T04:30:51;-0.30;99.90
72940;DHT22;61094;51.154;13.570;2023-01-28T04:32:56;-0.40;99.90
72940;DHT22;61094;51.154;13.570;2023-01-28T04:35:16;-0.40;99.90
72940;DHT22;61094;51.154;13.570;2023-01-28T04:37:33;-0.40;99.90
72940;DHT22;61094;51.154;13.570;2023-01-28T04:39:47;-0.50;99.90
72940;DHT22;61094;51.154;13.570;2023-01-28T04:42:13;-0.50;99.90
72940;DHT22;61094;51.154;13.570;2023-01-28T04:44:28;-0.50;99.90
72940;DHT22;61094;51.154;13.570;2023-01-28T04:46:51;-0.50;99.90
72940;DHT22;61094;51.154;13.570;2023-01-28T04:49:10;-0.50;99.90
72940;DHT22;61094;51.154;13.570;2023-01-28T04:51:46;-0.50;99.90
72940;DHT22;61094;51.154;13.570;2023-01-28T04:54:05;-0.50;99.90
72940;DHT22;61094;51.154;13.570;2023-01-28T04:56:08;-0.50;99.90
72940;DHT22;61094;51.154;13.570;2023-01-28T04:58:11;-0.50;99.90
72940;DHT22;61094;51.154;13.570;2023-01-28T05:00:15;-0.50;99.90
72940;DHT22;61094;51.154;13.570;2023-01-28T05:02:17;-0.50;99.90
72940;DHT22;61094;51.154;13.570;2023-01-28T05:04:21;-0.50;99.90
72940;DHT22;61094;51.154;13.570;2023-01-28T05:06:22;-0.50;99.90
72940;DHT22;61094;51.154;13.570;2023-01-28T05:08:29;-0.50;99.90
72940;DHT22;61094;51.154;13.570;2023-01-28T05:10:30;-0.50;99.90
72940;DHT22;61094;51.154;13.570;2023-01-28T05:12:32;-0.50;99.90
72940;DHT22;61094;51.154;13.570;2023-01-28T05:14:37;-0.50;99.90
72940;DHT22;61094;51.154;13.570;2023-01-28T05:16:40;-0.50;99.90
72940;DHT22;61094;51.154;13.570;2023-01-28T05:18:42;-0.50;99.90
72940;DHT22;61094;51.154;13.570;2023-01-28T05:20:49;-0.50;99.90
72940;DHT22;61094;51.154;13.570;2023-01-28T05:22:51;-0.50;99.90
72940;DHT22;61094;51.154;13.570;2023-01-28T05:24:57;-0.50;99.90
72940;DHT22;61094;51.154;13.570;2023-01-28T05:26:59;-0.50;99.90
72940;DHT22;61094;51.154;13.570;2023-01-28T05:29:00;-0.50;99.90
72940;DHT22;61094;51.154;13.570;2023-01-28T05:31:03;-0.40;99.90
72940;DHT22;61094;51.154;13.570;2023-01-28T05:33:05;-0.40;99.90
72940;DHT22;61094;51.154;13.570;2023-01-28T05:35:07;-0.40;99.90
72940;DHT22;61094;51.154;13.570;2023-01-28T05:37:09;-0.40;99.90
72940;DHT22;61094;51.154;13.570;2023-01-28T05:39:12;-0.40;99.90
72940;DHT22;61094;51.154;13.570;2023-01-28T05:41:16;-0.40;99.90
72940;DHT22;61094;51.154;13.570;2023-01-28T05:43:21;-0.40;99.90
72940;DHT22;61094;51.154;13.570;2023-01-28T05:45:39;-0.40;99.90
72940;DHT22;61094;51.154;13.570;2023-01-28T05:47:56;-0.50;99.90
72940;DHT22;61094;51.154;13.570;2023-01-28T05:50:12;-0.40;99.90
72940;DHT22;61094;51.154;13.570;2023-01-28T05:52:22;-0.40;99.90
72940;DHT22;61094;51.154;13.570;2023-01-28T05:54:26;-0.40;99.90
72940;DHT22;61094;51.154;13.570;2023-01-28T05:56:29;-0.50;99.90
72940;DHT22;61094;51.154;13.570;2023-01-28T05:58:31;-0.50;99.90
72940;DHT22;61094;51.154;13.570;2023-01-28T06:00:37;-0.50;99.90
72940;DHT22;61094;51.154;13.570;2023-01-28T06:02:39;-0.50;99.90
72940;DHT22;61094;51.154;13.570;2023-01-28T06:04:41;-0.50;99.90
72940;DHT22;61094;51.154;13.570;2023-01-28T06:06:43;-0.50;99.90
72940;DHT22;61094;51.154;13.570;2023-01-28T06:08:45;-0.50;99.90
72940;DHT22;61094;51.154;13.570;2023-01-28T06:10:51;-0.50;99.90
72940;DHT22;61094;51.154;13.570;2023-01-28T06:12:55;-0.50;99.90
72940;DHT22;61094;51.154;13.570;2023-01-28T06:15:18;-0.50;99.90
72940;DHT22;61094;51.154;13.570;2023-01-28T06:17:38;-0.50;99.90
72940;DHT22;61094;51.154;13.570;2023-01-28T06:19:47;-0.60;99.90
72940;DHT22;61094;51.154;13.570;2023-01-28T06:21:50;-0.60;99.90
72940;DHT22;61094;51.154;13.570;2023-01-28T06:23:53;-0.60;99.90
72940;DHT22;61094;51.154;13.570;2023-01-28T06:25:55;-0.60;99.90
72940;DHT22;61094;51.154;13.570;2023-01-28T06:27:58;-0.60;99.90
72940;DHT22;61094;51.154;13.570;2023-01-28T06:30:00;-0.60;99.90
72940;DHT22;61094;51.154;13.570;2023-01-28T06:32:02;-0.60;99.90
72940;DHT22;61094;51.154;13.570;2023-01-28T06:34:04;-0.60;99.90
72940;DHT22;61094;51.154;13.570;2023-01-28T06:36:06;-0.60;99.90
72940;DHT22;61094;51.154;13.570;2023-01-28T06:38:08;-0.60;99.90
72940;DHT22;61094;51.154;13.570;2023-01-28T06:40:10;-0.70;99.90
72940;DHT22;61094;51.154;13.570;2023-01-28T06:42:12;-0.60;99.90
72940;DHT22;61094;51.154;13.570;2023-01-28T06:44:15;-0.70;99.90
72940;DHT22;61094;51.154;13.570;2023-01-28T06:46:17;-0.60;99.90
72940;DHT22;61094;51.154;13.570;2023-01-28T06:48:19;-0.60;99.90
72940;DHT22;61094;51.154;13.570;2023-01-28T06:50:21;-0.70;99.90
72940;DHT22;61094;51.154;13.570;2023-01-28T06:52:23;-0.60;99.90
72940;DHT22;61094;51.154;13.570;2023-01-28T06:54:24;-0.60;99.90
72940;DHT22;61094;51.154;13.570;2023-01-28T06:56:26;-0.60;99.90
72940;DHT22;61094;51.154;13.570;2023-01-28T06:58:27;-0.60;99.90
72940;DHT22;61094;51.154;13.570;2023-01-28T07:00:30;-0.60;99.90
72940;DHT22;61094;51.154;13.570;2023-01-28T07:02:32;-0.60;99.90
72940;DHT22;61094;51.154;13.570;2023-01-28T07:04:34;-0.60;99.90
72940;DHT22;61094;51.154;13.570;2023-01-28T07:06:36;-0.60;99.90
72940;DHT22;61094;51.154;13.570;2023-01-28T07:08:38;-0.60;99.90
72940;DHT22;61094;51.154;13.570;2023-01-28T07:10:40;-0.60;99.90
72940;DHT22;61094;51.154;13.570;2023-01-28T07:12:42;-0.70;99.90
72940;DHT22;61094;51.154;13.570;2023-01-28T07:14:44;-0.70;99.90
72940;DHT22;61094;51.154;13.570;2023-01-28T07:16:46;-0.70;99.90
72940;DHT22;61094;51.154;13.570;2023-01-28T07:18:48;-0.60;99.90
72940;DHT22;61094;51.154;13.570;2023-01-28T07:20:50;-0.60;99.90
72940;DHT22;61094;51.154;13.570;2023-01-28T07:22:52;-0.60;99.90
72940;DHT22;61094;51.154;13.570;2023-01-28T07:24:53;-0.60;99.90
72940;DHT22;61094;51.154;13.570;2023-01-28T07:26:55;-0.60;99.90
72940;DHT22;61094;51.154;13.570;2023-01-28T07:28:57;-0.60;99.90
72940;DHT22;61094;51.154;13.570;2023-01-28T07:30:59;-0.60;99.90
72940;DHT22;61094;51.154;13.570;2023-01-28T07:33:02;-0.70;99.90
72940;DHT22;61094;51.154;13.570;2023-01-28T07:35:05;-0.70;99.90
72940;DHT22;61094;51.154;13.570;2023-01-28T07:37:07;-0.60;99.90
72940;DHT22;61094;51.154;13.570;2023-01-28T07:39:08;-0.60;99.90
72940;DHT22;61094;51.154;13.570;2023-01-28T07:41:10;-0.60;99.90
72940;DHT22;61094;51.154;13.570;2023-01-28T07:43:12;-0.60;99.90
72940;DHT22;61094;51.154;13.570;2023-01-28T07:45:15;-0.60;99.90
72940;DHT22;61094;51.154;13.570;2023-01-28T07:47:17;-0.50;99.90
72940;DHT22;61094;51.154;13.570;2023-01-28T07:49:20;-0.60;99.90
72940;DHT22;61094;51.154;13.570;2023-01-28T07:51:21;-0.50;99.90
72940;DHT22;61094;51.154;13.570;2023-01-28T07:53:23;-0.50;99.90
72940;DHT22;61094;51.154;13.570;2023-01-28T07:55:25;-0.60;99.90
72940;DHT22;61094;51.154;13.570;2023-01-28T07:57:26;-0.60;99.90
72940;DHT22;61094;51.154;13.570;2023-01-28T07:59:29;-0.60;99.90
72940;DHT22;61094;51.154;13.570;2023-01-28T08:01:31;-0.50;99.90
72940;DHT22;61094;51.154;13.570;2023-01-28T08:03:32;-0.50;99.90
72940;DHT22;61094;51.154;13.570;2023-01-28T08:05:40;-0.50;99.90
72940;DHT22;61094;51.154;13.570;2023-01-28T08:07:43;-0.40;99.90
72940;DHT22;61094;51.154;13.570;2023-01-28T08:09:44;-0.40;99.90
72940;DHT22;61094;51.154;13.570;2023-01-28T08:11:46;-0.40;99.90
72940;DHT22;61094;51.154;13.570;2023-01-28T08:13:48;-0.40;99.90
72940;DHT22;61094;51.154;13.570;2023-01-28T08:15:53;-0.40;99.90
72940;DHT22;61094;51.154;13.570;2023-01-28T08:17:56;-0.30;99.90
72940;DHT22;61094;51.154;13.570;2023-01-28T08:19:58;-0.30;99.90
72940;DHT22;61094;51.154;13.570;2023-01-28T08:22:01;-0.30;99.90
72940;DHT22;61094;51.154;13.570;2023-01-28T08:24:03;-0.20;99.90
72940;DHT22;61094;51.154;13.570;2023-01-28T08:26:05;-0.20;99.90
72940;DHT22;61094;51.154;13.570;2023-01-28T08:28:08;-0.20;99.90
72940;DHT22;61094;51.154;13.570;2023-01-28T08:30:11;-0.10;99.90
72940;DHT22;61094;51.154;13.570;2023-01-28T08:32:12;-0.20;99.90
72940;DHT22;61094;51.154;13.570;2023-01-28T08:34:14;-0.10;99.90
72940;DHT22;61094;51.154;13.570;2023-01-28T08:36:16;-0.10;99.90
72940;DHT22;61094;51.154;13.570;2023-01-28T08:38:19;-0.10;99.90
72940;DHT22;61094;51.154;13.570;2023-01-28T08:40:20;0.00;99.90
72940;DHT22;61094;51.154;13.570;2023-01-28T08:42:22;0.00;99.90
72940;DHT22;61094;51.154;13.570;2023-01-28T08:44:24;0.00;99.90
72940;DHT22;61094;51.154;13.570;2023-01-28T08:46:25;0.00;99.90
72940;DHT22;61094;51.154;13.570;2023-01-28T08:48:27;0.10;99.90
72940;DHT22;61094;51.154;13.570;2023-01-28T08:50:32;0.10;99.90
72940;DHT22;61094;51.154;13.570;2023-01-28T08:52:34;0.20;99.90
72940;DHT22;61094;51.154;13.570;2023-01-28T08:54:37;0.20;99.90
72940;DHT22;61094;51.154;13.570;2023-01-28T08:56:39;0.20;99.90
72940;DHT22;61094;51.154;13.570;2023-01-28T08:58:42;0.30;99.90
72940;DHT22;61094;51.154;13.570;2023-01-28T09:00:45;0.30;99.90
72940;DHT22;61094;51.154;13.570;2023-01-28T09:02:50;0.30;99.90
72940;DHT22;61094;51.154;13.570;2023-01-28T09:04:51;0.30;99.90
72940;DHT22;61094;51.154;13.570;2023-01-28T09:06:53;0.30;99.90
72940;DHT22;61094;51.154;13.570;2023-01-28T09:08:55;0.30;99.90
72940;DHT22;61094;51.154;13.570;2023-01-28T09:10:59;0.40;99.90
72940;DHT22;61094;51.154;13.570;2023-01-28T09:13:03;0.30;99.90
72940;DHT22;61094;51.154;13.570;2023-01-28T09:15:06;0.40;99.90
72940;DHT22;61094;51.154;13.570;2023-01-28T09:17:08;0.40;99.90
72940;DHT22;61094;51.154;13.570;2023-01-28T09:19:10;0.40;99.90
72940;DHT22;61094;51.154;13.570;2023-01-28T09:21:11;0.40;99.90
72940;DHT22;61094;51.154;13.570;2023-01-28T09:23:13;0.40;99.90
72940;DHT22;61094;51.154;13.570;2023-01-28T09:25:15;0.40;99.90
72940;DHT22;61094;51.154;13.570;2023-01-28T09:27:18;0.40;99.90
72940;DHT22;61094;51.154;13.570;2023-01-28T09:29:20;0.40;99.90
72940;DHT22;61094;51.154;13.570;2023-01-28T09:31:21;0.40;99.90
72940;DHT22;61094;51.154;13.570;2023-01-28T09:33:23;0.40;99.90
72940;DHT22;61094;51.154;13.570;2023-01-28T09:35:25;0.40;99.90
72940;DHT22;61094;51.154;13.570;2023-01-28T09:37:26;0.40;99.90
72940;DHT22;61094;51.154;13.570;2023-01-28T09:39:28;0.40;99.90
72940;DHT22;61094;51.154;13.570;2023-01-28T09:41:35;0.40;99.90
72940;DHT22;61094;51.154;13.570;2023-01-28T09:43:53;0.40;99.90
72940;DHT22;61094;51.154;13.570;2023-01-28T09:46:01;0.40;99.90
72940;DHT22;61094;51.154;13.570;2023-01-28T09:48:07;0.30;99.90
72940;DHT22;61094;51.154;13.570;2023-01-28T09:50:16;0.30;99.90
72940;DHT22;61094;51.154;13.570;2023-01-28T09:52:20;0.30;99.90
72940;DHT22;61094;51.154;13.570;2023-01-28T09:54:29;0.30;99.90
72940;DHT22;61094;51.154;13.570;2023-01-28T09:56:38;0.30;99.90
72940;DHT22;61094;51.154;13.570;2023-01-28T09:58:41;0.30;99.90
72940;DHT22;61094;51.154;13.570;2023-01-28T10:00:52;0.30;99.90
72940;DHT22;61094;51.154;13.570;2023-01-28T10:02:58;0.40;99.90
72940;DHT22;61094;51.154;13.570;2023-01-28T10:05:11;0.40;99.90
72940;DHT22;61094;51.154;13.570;2023-01-28T10:07:30;0.40;99.90
72940;DHT22;61094;51.154;13.570;2023-01-28T10:09:40;0.30;99.90
72940;DHT22;61094;51.154;13.570;2023-01-28T10:11:57;0.30;99.90
72940;DHT22;61094;51.154;13.570;2023-01-28T10:14:07;0.30;99.90
72940;DHT22;61094;51.154;13.570;2023-01-28T10:16:28;0.20;99.90
72940;DHT22;61094;51.154;13.570;2023-01-28T10:18:36;0.20;99.90
72940;DHT22;61094;51.154;13.570;2023-01-28T10:20:44;0.10;99.90
72940;DHT22;61094;51.154;13.570;2023-01-28T10:22:49;0.10;99.90
72940;DHT22;61094;51.154;13.570;2023-01-28T10:24:55;0.10;99.90
72940;DHT22;61094;51.154;13.570;2023-01-28T10:27:01;0.10;99.90
72940;DHT22;61094;51.154;13.570;2023-01-28T10:29:11;0.10;99.90
72940;DHT22;61094;51.154;13.570;2023-01-28T10:31:13;0.10;99.90
72940;DHT22;61094;51.154;13.570;2023-01-28T10:33:19;0.10;99.90
72940;DHT22;61094;51.154;13.570;2023-01-28T10:35:22;0.00;99.90
72940;DHT22;61094;51.154;13.570;2023-01-28T10:37:24;0.10;99.90
72940;DHT22;61094;51.154;13.570;2023-01-28T10:39:27;0.00;99.90
72940;DHT22;61094;51.154;13.570;2023-01-28T10:41:29;0.00;99.90
72940;DHT22;61094;51.154;13.570;2023-01-28T10:43:34;0.00;99.90
72940;DHT22;61094;51.154;13.570;2023-01-28T10:45:41;0.00;99.90
72940;DHT22;61094;51.154;13.570;2023-01-28T10:47:46;0.00;99.90
72940;DHT22;61094;51.154;13.570;2023-01-28T10:49:55;0.00;99.90
72940;DHT22;61094;51.154;13.570;2023-01-28T10:52:10;0.00;99.90
72940;DHT22;61094;51.154;13.570;2023-01-28T10:54:20;0.00;99.90
72940;DHT22;61094;51.154;13.570;2023-01-28T10:56:24;0.00;99.90
72940;DHT22;61094;51.154;13.570;2023-01-28T10:58:28;0.00;99.90
72940;DHT22;61094;51.154;13.570;2023-01-28T11:00:34;0.00;99.90
72940;DHT22;61094;51.154;13.570;2023-01-28T11:02:36;0.00;99.90
72940;DHT22;61094;51.154;13.570;2023-01-28T11:04:38;0.00;99.90
72940;DHT22;61094;51.154;13.570;2023-01-28T11:06:41;0.00;99.90
72940;DHT22;61094;51.154;13.570;2023-01-28T11:08:43;0.00;99.90
72940;DHT22;61094;51.154;13.570;2023-01-28T11:10:45;0.00;99.90
72940;DHT22;61094;51.154;13.570;2023-01-28T11:12:54;0.00;99.90
72940;DHT22;61094;51.154;13.570;2023-01-28T11:14:57;-0.10;99.90
72940;DHT22;61094;51.154;13.570;2023-01-28T11:16:59;0.00;99.90
72940;DHT22;61094;51.154;13.570;2023-01-28T11:19:03;0.00;99.90
72940;DHT22;61094;51.154;13.570;2023-01-28T11:21:12;0.00;99.90
72940;DHT22;61094;51.154;13.570;2023-01-28T11:23:23;0.00;99.90
72940;DHT22;61094;51.154;13.570;2023-01-28T11:25:28;0.00;99.90
72940;DHT22;61094;51.154;13.570;2023-01-28T11:27:32;0.00;99.90
72940;DHT22;61094;51.154;13.570;2023-01-28T11:29:38;0.00;99.90
72940;DHT22;61094;51.154;13.570;2023-01-28T11:31:42;0.00;99.90
72940;DHT22;61094;51.154;13.570;2023-01-28T11:33:48;0.00;99.90
72940;DHT22;61094;51.154;13.570;2023-01-28T11:35:54;0.00;99.90
72940;DHT22;61094;51.154;13.570;2023-01-28T11:37:57;0.00;99.90
72940;DHT22;61094;51.154;13.570;2023-01-28T11:40:14;0.00;99.90
72940;DHT22;61094;51.154;13.570;2023-01-28T11:42:21;0.00;99.90
72940;DHT22;61094;51.154;13.570;2023-01-28T11:44:24;0.10;99.90
72940;DHT22;61094;51.154;13.570;2023-01-28T11:46:49;0.00;99.90
72940;DHT22;61094;51.154;13.570;2023-01-28T11:49:00;0.00;99.90
72940;DHT22;61094;51.154;13.570;2023-01-28T11:51:15;0.10;99.90
72940;DHT22;61094;51.154;13.570;2023-01-28T11:53:41;0.10;99.90
72940;DHT22;61094;51.154;13.570;2023-01-28T11:56:01;0.00;99.90
72940;DHT22;61094;51.154;13.570;2023-01-28T11:58:17;0.10;99.90
72940;DHT22;61094;51.154;13.570;2023-01-28T12:00:32;0.10;99.90
72940;DHT22;61094;51.154;13.570;2023-01-28T12:02:46;0.10;99.90
72940;DHT22;61094;51.154;13.570;2023-01-28T12:04:59;0.10;99.90
72940;DHT22;61094;51.154;13.570;2023-01-28T12:07:14;0.10;99.90
72940;DHT22;61094;51.154;13.570;2023-01-28T12:09:23;0.10;99.90
72940;DHT22;61094;51.154;13.570;2023-01-28T12:11:35;0.10;99.90
72940;DHT22;61094;51.154;13.570;2023-01-28T12:14:06;0.10;99.90
72940;DHT22;61094;51.154;13.570;2023-01-28T12:16:33;0.10;99.90
72940;DHT22;61094;51.154;13.570;2023-01-28T12:18:50;0.10;99.90
72940;DHT22;61094;51.154;13.570;2023-01-28T12:21:03;0.20;99.90
72940;DHT22;61094;51.154;13.570;2023-01-28T12:23:22;0.20;99.90
72940;DHT22;61094;51.154;13.570;2023-01-28T12:25:38;0.20;99.90
72940;DHT22;61094;51.154;13.570;2023-01-28T12:27:51;0.30;99.90
72940;DHT22;61094;51.154;13.570;2023-01-28T12:30:05;0.30;99.90
72940;DHT22;61094;51.154;13.570;2023-01-28T12:32:24;0.30;99.90
72940;DHT22;61094;51.154;13.570;2023-01-28T12:34:55;0.30;99.90
72940;DHT22;61094;51.154;13.570;2023-01-28T12:37:06;0.30;99.90
72940;DHT22;61094;51.154;13.570;2023-01-28T12:39:14;0.30;99.90
72940;DHT22;61094;51.154;13.570;2023-01-28T12:41:21;0.30;99.90
72940;DHT22;61094;51.154;13.570;2023-01-28T12:43:44;0.30;99.90
72940;DHT22;61094;51.154;13.570;2023-01-28T12:45:52;0.30;99.90
72940;DHT22;61094;51.154;13.570;2023-01-28T12:48:01;0.30;99.90
72940;DHT22;61094;51.154;13.570;2023-01-28T12:50:12;0.30;99.90
72940;DHT22;61094;51.154;13.570;2023-01-28T12:52:18;0.30;99.90
72940;DHT22;61094;51.154;13.570;2023-01-28T12:54:24;0.30;99.90
72940;DHT22;61094;51.154;13.570;2023-01-28T12:56:30;0.30;99.90
72940;DHT22;61094;51.154;13.570;2023-01-28T12:58:42;0.30;99.90
72940;DHT22;61094;51.154;13.570;2023-01-28T13:00:48;0.30;99.90
72940;DHT22;61094;51.154;13.570;2023-01-28T13:02:51;0.40;99.90
72940;DHT22;61094;51.154;13.570;2023-01-28T13:05:01;0.30;99.90
72940;DHT22;61094;51.154;13.570;2023-01-28T13:07:09;0.30;99.90
72940;DHT22;61094;51.154;13.570;2023-01-28T13:09:16;0.30;99.90
72940;DHT22;61094;51.154;13.570;2023-01-28T13:11:19;0.30;99.90
72940;DHT22;61094;51.154;13.570;2023-01-28T13:13:26;0.30;99.90
72940;DHT22;61094;51.154;13.570;2023-01-28T13:15:31;0.30;99.90